sensor_id;sensor_type;location;lat;lon;timestamp;P1;durP1;ratioP1;P2;durP2;ratioP2
31043;SDS011;17710;52.520;13.352;2023-07-29T00:00:36;5.13;;;4.72;;
31043;SDS011;17710;52.520;13.352;2023-07-29T00:03:04;7.15;;;4.72;;
31043;SDS011;17710;52.520;13.352;2023-07-29T00:05:31;5.72;;;5.07;;
31043;SDS011;17710;52.520;13.352;2023-07-29T00:07:57;7.38;;;5.32;;
31043;SDS011;17710;52.520;13.352;2023-07-29T00:10:25;5.30;;;4.45;;
31043;SDS011;17710;52.520;13.352;2023-07-29T00:12:52;5.13;;;4.63;;
31043;SDS011;17710;52.520;13.352;2023-07-29T00:15:18;5.70;;;5.00;;
31043;SDS011;17710;52.520;13.352;2023-07-29T00:17:45;5.32;;;4.82;;
31043;SDS011;17710;52.520;13.352;2023-07-29T00:20:11;6.30;;;5.15;;
31043;SDS011;17710;52.520;13.352;2023-07-29T00:22:38;5.78;;;5.28;;
31043;SDS011;17710;52.520;13.352;2023-07-29T00:25:04;6.10;;;5.50;;
31043;SDS011;17710;52.520;13.352;2023-07-29T00:27:33;8.95;;;5.97;;
31043;SDS011;17710;52.520;13.352;2023-07-29T00:29:59;9.68;;;6.07;;
31043;SDS011;17710;52.520;13.352;2023-07-29T00:32:26;7.28;;;5.90;;
31043;SDS011;17710;52.520;13.352;2023-07-29T00:34:55;7.20;;;5.90;;
31043;SDS011;17710;52.520;13.352;2023-07-29T00:37:22;7.05;;;6.38;;
31043;SDS011;17710;52.520;13.352;2023-07-29T00:39:48;11.38;;;6.45;;
31043;SDS011;17710;52.520;13.352;2023-07-29T00:42:15;8.55;;;5.75;;
31043;SDS011;17710;52.520;13.352;2023-07-29T00:44:43;8.38;;;6.63;;
31043;SDS011;17710;52.520;13.352;2023-07-29T00:47:09;6.88;;;6.13;;
31043;SDS011;17710;52.520;13.352;2023-07-29T00:49:38;9.00;;;6.47;;
31043;SDS011;17710;52.520;13.352;2023-07-29T00:52:05;9.90;;;7.18;;
31043;SDS011;17710;52.520;13.352;2023-07-29T00:54:32;9.73;;;7.13;;
31043;SDS011;17710;52.520;13.352;2023-07-29T00:56:58;10.32;;;7.05;;
31043;SDS011;17710;52.520;13.352;2023-07-29T00:59:25;10.65;;;7.82;;
31043;SDS011;17710;52.520;13.352;2023-07-29T01:01:54;8.25;;;7.45;;
31043;SDS011;17710;52.520;13.352;2023-07-29T01:04:21;8.20;;;7.40;;
31043;SDS011;17710;52.520;13.352;2023-07-29T01:06:50;8.90;;;7.10;;
31043;SDS011;17710;52.520;13.352;2023-07-29T01:09:25;8.18;;;7.35;;
31043;SDS011;17710;52.520;13.352;2023-07-29T01:12:01;12.48;;;7.90;;
31043;SDS011;17710;52.520;13.352;2023-07-29T01:14:36;9.38;;;7.43;;
31043;SDS011;17710;52.520;13.352;2023-07-29T01:17:09;11.18;;;7.85;;
31043;SDS011;17710;52.520;13.352;2023-07-29T01:19:48;8.50;;;7.50;;
31043;SDS011;17710;52.520;13.352;2023-07-29T01:22:25;10.50;;;8.05;;
31043;SDS011;17710;52.520;13.352;2023-07-29T01:24:54;9.70;;;7.35;;
31043;SDS011;17710;52.520;13.352;2023-07-29T01:27:20;9.95;;;7.93;;
31043;SDS011;17710;52.520;13.352;2023-07-29T01:29:46;10.23;;;7.65;;
31043;SDS011;17710;52.520;13.352;2023-07-29T01:32:14;8.82;;;7.93;;
31043;SDS011;17710;52.520;13.352;2023-07-29T01:34:48;8.98;;;7.85;;
31043;SDS011;17710;52.520;13.352;2023-07-29T01:37:21;11.50;;;7.60;;
31043;SDS011;17710;52.520;13.352;2023-07-29T01:39:51;8.68;;;7.78;;
31043;SDS011;17710;52.520;13.352;2023-07-29T01:42:24;8.82;;;7.72;;
31043;SDS011;17710;52.520;13.352;2023-07-29T01:44:51;8.15;;;7.35;;
31043;SDS011;17710;52.520;13.352;2023-07-29T01:47:17;9.95;;;7.38;;
31043;SDS011;17710;52.520;13.352;2023-07-29T01:49:44;12.73;;;6.78;;
31043;SDS011;17710;52.520;13.352;2023-07-29T01:52:13;8.02;;;7.28;;
31043;SDS011;17710;52.520;13.352;2023-07-29T01:54:39;8.85;;;6.28;;
31043;SDS011;17710;52.520;13.352;2023-07-29T01:57:07;10.18;;;6.97;;
31043;SDS011;17710;52.520;13.352;2023-07-29T01:59:34;7.80;;;6.93;;
31043;SDS011;17710;52.520;13.352;2023-07-29T02:02:00;9.48;;;7.05;;
31043;SDS011;17710;52.520;13.352;2023-07-29T02:04:27;9.73;;;7.28;;
31043;SDS011;17710;52.520;13.352;2023-07-29T02:06:53;7.88;;;6.97;;
31043;SDS011;17710;52.520;13.352;2023-07-29T02:09:20;9.30;;;7.55;;
31043;SDS011;17710;52.520;13.352;2023-07-29T02:11:46;8.38;;;7.57;;
31043;SDS011;17710;52.520;13.352;2023-07-29T02:14:14;8.68;;;7.38;;
31043;SDS011;17710;52.520;13.352;2023-07-29T02:16:41;7.68;;;6.88;;
31043;SDS011;17710;52.520;13.352;2023-07-29T02:19:07;8.68;;;7.32;;
31043;SDS011;17710;52.520;13.352;2023-07-29T02:21:33;9.13;;;7.68;;
31043;SDS011;17710;52.520;13.352;2023-07-29T02:24:00;16.23;;;7.90;;
31043;SDS011;17710;52.520;13.352;2023-07-29T02:26:26;8.93;;;8.02;;
31043;SDS011;17710;52.520;13.352;2023-07-29T02:28:53;7.97;;;7.22;;
31043;SDS011;17710;52.520;13.352;2023-07-29T02:31:21;8.85;;;7.95;;
31043;SDS011;17710;52.520;13.352;2023-07-29T02:33:48;9.63;;;7.45;;
31043;SDS011;17710;52.520;13.352;2023-07-29T02:36:15;9.93;;;8.05;;
31043;SDS011;17710;52.520;13.352;2023-07-29T02:38:42;9.45;;;8.02;;
31043;SDS011;17710;52.520;13.352;2023-07-29T02:41:09;10.70;;;8.18;;
31043;SDS011;17710;52.520;13.352;2023-07-29T02:43:37;13.20;;;8.18;;
31043;SDS011;17710;52.520;13.352;2023-07-29T02:46:04;9.90;;;8.50;;
31043;SDS011;17710;52.520;13.352;2023-07-29T02:48:32;10.07;;;8.00;;
31043;SDS011;17710;52.520;13.352;2023-07-29T02:50:58;10.80;;;8.18;;
31043;SDS011;17710;52.520;13.352;2023-07-29T02:53:25;10.35;;;8.30;;
31043;SDS011;17710;52.520;13.352;2023-07-29T02:55:51;9.35;;;8.30;;
31043;SDS011;17710;52.520;13.352;2023-07-29T02:58:18;11.18;;;7.55;;
31043;SDS011;17710;52.520;13.352;2023-07-29T03:00:45;9.60;;;8.30;;
31043;SDS011;17710;52.520;13.352;2023-07-29T03:03:13;11.35;;;8.32;;
31043;SDS011;17710;52.520;13.352;2023-07-29T03:05:41;9.52;;;8.13;;
31043;SDS011;17710;52.520;13.352;2023-07-29T03:08:07;10.40;;;7.95;;
31043;SDS011;17710;52.520;13.352;2023-07-29T03:10:34;8.40;;;7.50;;
31043;SDS011;17710;52.520;13.352;2023-07-29T03:13:01;8.60;;;7.15;;
31043;SDS011;17710;52.520;13.352;2023-07-29T03:15:28;8.82;;;7.05;;
31043;SDS011;17710;52.520;13.352;2023-07-29T03:17:54;8.25;;;7.30;;
31043;SDS011;17710;52.520;13.352;2023-07-29T03:20:21;12.73;;;7.65;;
31043;SDS011;17710;52.520;13.352;2023-07-29T03:22:48;10.15;;;7.93;;
31043;SDS011;17710;52.520;13.352;2023-07-29T03:25:15;8.35;;;7.55;;
31043;SDS011;17710;52.520;13.352;2023-07-29T03:27:42;13.13;;;8.10;;
31043;SDS011;17710;52.520;13.352;2023-07-29T03:30:08;8.90;;;8.00;;
31043;SDS011;17710;52.520;13.352;2023-07-29T03:32:37;9.15;;;8.25;;
31043;SDS011;17710;52.520;13.352;2023-07-29T03:35:04;9.45;;;7.78;;
31043;SDS011;17710;52.520;13.352;2023-07-29T03:37:31;12.30;;;7.88;;
31043;SDS011;17710;52.520;13.352;2023-07-29T03:39:59;10.13;;;7.03;;
31043;SDS011;17710;52.520;13.352;2023-07-29T03:42:25;9.00;;;8.05;;
31043;SDS011;17710;52.520;13.352;2023-07-29T03:44:51;10.85;;;7.68;;
31043;SDS011;17710;52.520;13.352;2023-07-29T03:47:21;8.10;;;7.30;;
31043;SDS011;17710;52.520;13.352;2023-07-29T03:49:47;11.82;;;7.45;;
31043;SDS011;17710;52.520;13.352;2023-07-29T03:52:14;11.18;;;8.23;;
31043;SDS011;17710;52.520;13.352;2023-07-29T03:54:40;9.48;;;8.07;;
31043;SDS011;17710;52.520;13.352;2023-07-29T03:57:08;8.73;;;7.82;;
31043;SDS011;17710;52.520;13.352;2023-07-29T03:59:34;8.70;;;7.80;;
31043;SDS011;17710;52.520;13.352;2023-07-29T04:02:01;9.38;;;7.60;;
31043;SDS011;17710;52.520;13.352;2023-07-29T04:04:27;10.25;;;7.85;;
31043;SDS011;17710;52.520;13.352;2023-07-29T04:06:54;10.75;;;8.70;;
31043;SDS011;17710;52.520;13.352;2023-07-29T04:09:20;8.88;;;8.07;;
31043;SDS011;17710;52.520;13.352;2023-07-29T04:11:47;8.55;;;7.50;;
31043;SDS011;17710;52.520;13.352;2023-07-29T04:14:15;8.63;;;7.60;;
31043;SDS011;17710;52.520;13.352;2023-07-29T04:16:41;8.57;;;7.78;;
31043;SDS011;17710;52.520;13.352;2023-07-29T04:19:08;8.93;;;7.82;;
31043;SDS011;17710;52.520;13.352;2023-07-29T04:21:34;9.20;;;7.25;;
31043;SDS011;17710;52.520;13.352;2023-07-29T04:24:01;8.38;;;7.18;;
31043;SDS011;17710;52.520;13.352;2023-07-29T04:26:27;9.13;;;8.05;;
31043;SDS011;17710;52.520;13.352;2023-07-29T04:28:54;10.40;;;7.38;;
31043;SDS011;17710;52.520;13.352;2023-07-29T04:31:22;8.25;;;7.38;;
31043;SDS011;17710;52.520;13.352;2023-07-29T04:33:51;9.73;;;7.85;;
31043;SDS011;17710;52.520;13.352;2023-07-29T04:36:18;8.60;;;7.70;;
31043;SDS011;17710;52.520;13.352;2023-07-29T04:38:44;9.38;;;7.78;;
31043;SDS011;17710;52.520;13.352;2023-07-29T04:41:10;7.38;;;6.55;;
31043;SDS011;17710;52.520;13.352;2023-07-29T04:43:37;10.27;;;7.03;;
31043;SDS011;17710;52.520;13.352;2023-07-29T04:46:05;7.95;;;7.13;;
31043;SDS011;17710;52.520;13.352;2023-07-29T04:48:34;7.40;;;6.43;;
31043;SDS011;17710;52.520;13.352;2023-07-29T04:51:00;10.60;;;7.50;;
31043;SDS011;17710;52.520;13.352;2023-07-29T04:53:26;7.47;;;6.72;;
31043;SDS011;17710;52.520;13.352;2023-07-29T04:55:53;8.75;;;7.38;;
31043;SDS011;17710;52.520;13.352;2023-07-29T04:58:19;7.40;;;6.70;;
31043;SDS011;17710;52.520;13.352;2023-07-29T05:00:46;8.07;;;6.63;;
31043;SDS011;17710;52.520;13.352;2023-07-29T05:03:12;7.13;;;6.10;;
31043;SDS011;17710;52.520;13.352;2023-07-29T05:05:40;7.15;;;6.45;;
31043;SDS011;17710;52.520;13.352;2023-07-29T05:08:06;7.68;;;6.53;;
31043;SDS011;17710;52.520;13.352;2023-07-29T05:10:34;7.65;;;6.30;;
31043;SDS011;17710;52.520;13.352;2023-07-29T05:13:00;7.60;;;6.50;;
31043;SDS011;17710;52.520;13.352;2023-07-29T05:15:27;6.63;;;5.82;;
31043;SDS011;17710;52.520;13.352;2023-07-29T05:17:54;10.70;;;6.00;;
31043;SDS011;17710;52.520;13.352;2023-07-29T05:20:20;6.78;;;6.07;;
31043;SDS011;17710;52.520;13.352;2023-07-29T05:22:48;6.65;;;6.05;;
31043;SDS011;17710;52.520;13.352;2023-07-29T05:25:14;6.93;;;6.32;;
31043;SDS011;17710;52.520;13.352;2023-07-29T05:27:41;6.22;;;5.63;;
31043;SDS011;17710;52.520;13.352;2023-07-29T05:30:07;6.57;;;6.03;;
31043;SDS011;17710;52.520;13.352;2023-07-29T05:32:34;7.80;;;5.88;;
31043;SDS011;17710;52.520;13.352;2023-07-29T05:35:01;10.18;;;6.20;;
31043;SDS011;17710;52.520;13.352;2023-07-29T05:37:28;9.20;;;6.15;;
31043;SDS011;17710;52.520;13.352;2023-07-29T05:39:55;8.07;;;6.07;;
31043;SDS011;17710;52.520;13.352;2023-07-29T05:42:22;9.13;;;6.10;;
31043;SDS011;17710;52.520;13.352;2023-07-29T05:44:49;7.65;;;5.55;;
31043;SDS011;17710;52.520;13.352;2023-07-29T05:47:15;7.28;;;6.47;;
31043;SDS011;17710;52.520;13.352;2023-07-29T05:49:41;6.38;;;5.70;;
31043;SDS011;17710;52.520;13.352;2023-07-29T05:52:08;7.30;;;6.47;;
31043;SDS011;17710;52.520;13.352;2023-07-29T05:54:34;6.68;;;6.07;;
31043;SDS011;17710;52.520;13.352;2023-07-29T05:57:02;7.80;;;6.25;;
31043;SDS011;17710;52.520;13.352;2023-07-29T05:59:29;8.85;;;6.88;;
31043;SDS011;17710;52.520;13.352;2023-07-29T06:01:55;8.30;;;6.18;;
31043;SDS011;17710;52.520;13.352;2023-07-29T06:04:22;13.15;;;6.53;;
31043;SDS011;17710;52.520;13.352;2023-07-29T06:06:48;6.32;;;5.72;;
31043;SDS011;17710;52.520;13.352;2023-07-29T06:09:15;6.75;;;5.50;;
31043;SDS011;17710;52.520;13.352;2023-07-29T06:11:42;7.15;;;5.65;;
31043;SDS011;17710;52.520;13.352;2023-07-29T06:14:09;7.55;;;5.72;;
31043;SDS011;17710;52.520;13.352;2023-07-29T06:16:36;8.10;;;5.25;;
31043;SDS011;17710;52.520;13.352;2023-07-29T06:19:02;6.15;;;5.55;;
31043;SDS011;17710;52.520;13.352;2023-07-29T06:21:29;7.25;;;5.75;;
31043;SDS011;17710;52.520;13.352;2023-07-29T06:23:56;6.50;;;5.10;;
31043;SDS011;17710;52.520;13.352;2023-07-29T06:26:22;8.15;;;5.32;;
31043;SDS011;17710;52.520;13.352;2023-07-29T06:28:49;9.77;;;5.05;;
31043;SDS011;17710;52.520;13.352;2023-07-29T06:31:16;5.75;;;5.00;;
31043;SDS011;17710;52.520;13.352;2023-07-29T06:33:43;5.70;;;4.60;;
31043;SDS011;17710;52.520;13.352;2023-07-29T06:36:09;5.88;;;5.30;;
31043;SDS011;17710;52.520;13.352;2023-07-29T06:38:36;5.25;;;4.43;;
31043;SDS011;17710;52.520;13.352;2023-07-29T06:41:03;4.82;;;4.43;;
31043;SDS011;17710;52.520;13.352;2023-07-29T06:43:30;4.82;;;4.18;;
31043;SDS011;17710;52.520;13.352;2023-07-29T06:45:56;5.07;;;4.10;;
31043;SDS011;17710;52.520;13.352;2023-07-29T06:48:24;6.38;;;3.70;;
31043;SDS011;17710;52.520;13.352;2023-07-29T06:50:50;3.97;;;3.67;;
31043;SDS011;17710;52.520;13.352;2023-07-29T06:53:17;4.60;;;4.10;;
31043;SDS011;17710;52.520;13.352;2023-07-29T06:55:43;6.80;;;3.95;;
31043;SDS011;17710;52.520;13.352;2023-07-29T06:58:10;3.88;;;3.53;;
31043;SDS011;17710;52.520;13.352;2023-07-29T07:00:36;4.22;;;3.90;;
31043;SDS011;17710;52.520;13.352;2023-07-29T07:03:03;6.20;;;4.38;;
31043;SDS011;17710;52.520;13.352;2023-07-29T07:05:30;4.90;;;3.70;;
31043;SDS011;17710;52.520;13.352;2023-07-29T07:07:57;5.38;;;4.43;;
31043;SDS011;17710;52.520;13.352;2023-07-29T07:10:23;3.88;;;3.58;;
31043;SDS011;17710;52.520;13.352;2023-07-29T07:12:50;3.75;;;3.45;;
31043;SDS011;17710;52.520;13.352;2023-07-29T07:15:16;3.67;;;3.28;;
31043;SDS011;17710;52.520;13.352;2023-07-29T07:17:43;7.22;;;4.10;;
31043;SDS011;17710;52.520;13.352;2023-07-29T07:20:10;5.15;;;4.00;;
31043;SDS011;17710;52.520;13.352;2023-07-29T07:22:38;4.25;;;3.85;;
31043;SDS011;17710;52.520;13.352;2023-07-29T07:25:05;5.22;;;4.63;;
31043;SDS011;17710;52.520;13.352;2023-07-29T07:27:32;5.45;;;3.95;;
31043;SDS011;17710;52.520;13.352;2023-07-29T07:29:58;6.70;;;3.97;;
31043;SDS011;17710;52.520;13.352;2023-07-29T07:32:25;6.65;;;4.50;;
31043;SDS011;17710;52.520;13.352;2023-07-29T07:34:52;7.78;;;4.63;;
31043;SDS011;17710;52.520;13.352;2023-07-29T07:37:18;4.93;;;4.40;;
31043;SDS011;17710;52.520;13.352;2023-07-29T07:39:46;5.00;;;4.50;;
31043;SDS011;17710;52.520;13.352;2023-07-29T07:42:13;6.75;;;3.92;;
31043;SDS011;17710;52.520;13.352;2023-07-29T07:44:39;5.50;;;4.28;;
31043;SDS011;17710;52.520;13.352;2023-07-29T07:47:06;5.50;;;4.10;;
31043;SDS011;17710;52.520;13.352;2023-07-29T07:49:32;7.07;;;3.80;;
31043;SDS011;17710;52.520;13.352;2023-07-29T07:51:59;4.20;;;3.80;;
31043;SDS011;17710;52.520;13.352;2023-07-29T07:54:26;4.88;;;4.35;;
31043;SDS011;17710;52.520;13.352;2023-07-29T07:56:54;5.93;;;4.00;;
31043;SDS011;17710;52.520;13.352;2023-07-29T07:59:21;7.00;;;3.92;;
31043;SDS011;17710;52.520;13.352;2023-07-29T08:01:47;5.18;;;3.75;;
31043;SDS011;17710;52.520;13.352;2023-07-29T08:04:14;3.92;;;3.63;;
31043;SDS011;17710;52.520;13.352;2023-07-29T08:06:40;5.63;;;3.25;;
31043;SDS011;17710;52.520;13.352;2023-07-29T08:09:06;4.00;;;3.70;;
31043;SDS011;17710;52.520;13.352;2023-07-29T08:11:33;4.00;;;3.70;;
31043;SDS011;17710;52.520;13.352;2023-07-29T08:14:01;5.40;;;3.22;;
31043;SDS011;17710;52.520;13.352;2023-07-29T08:16:28;4.93;;;3.47;;
31043;SDS011;17710;52.520;13.352;2023-07-29T08:18:55;3.72;;;3.30;;
31043;SDS011;17710;52.520;13.352;2023-07-29T08:21:21;7.45;;;3.10;;
31043;SDS011;17710;52.520;13.352;2023-07-29T08:23:48;3.92;;;3.45;;
31043;SDS011;17710;52.520;13.352;2023-07-29T08:26:14;3.63;;;2.90;;
31043;SDS011;17710;52.520;13.352;2023-07-29T08:28:41;4.88;;;3.30;;
31043;SDS011;17710;52.520;13.352;2023-07-29T08:31:09;3.17;;;2.88;;
31043;SDS011;17710;52.520;13.352;2023-07-29T08:33:35;5.22;;;2.90;;
31043;SDS011;17710;52.520;13.352;2023-07-29T08:36:02;3.85;;;2.70;;
31043;SDS011;17710;52.520;13.352;2023-07-29T08:38:29;9.80;;;2.80;;
31043;SDS011;17710;52.520;13.352;2023-07-29T08:40:57;3.85;;;2.80;;
31043;SDS011;17710;52.520;13.352;2023-07-29T08:43:27;2.85;;;2.60;;
31043;SDS011;17710;52.520;13.352;2023-07-29T08:45:55;4.93;;;2.60;;
31043;SDS011;17710;52.520;13.352;2023-07-29T08:48:27;2.63;;;2.42;;
31043;SDS011;17710;52.520;13.352;2023-07-29T08:50:58;2.42;;;2.33;;
31043;SDS011;17710;52.520;13.352;2023-07-29T08:53:27;2.35;;;2.15;;
31043;SDS011;17710;52.520;13.352;2023-07-29T08:55:54;4.22;;;2.40;;
31043;SDS011;17710;52.520;13.352;2023-07-29T08:58:21;5.72;;;2.63;;
31043;SDS011;17710;52.520;13.352;2023-07-29T09:00:49;4.60;;;2.40;;
31043;SDS011;17710;52.520;13.352;2023-07-29T09:03:16;3.28;;;2.30;;
31043;SDS011;17710;52.520;13.352;2023-07-29T09:05:44;2.40;;;2.30;;
31043;SDS011;17710;52.520;13.352;2023-07-29T09:08:11;3.88;;;2.20;;
31043;SDS011;17710;52.520;13.352;2023-07-29T09:10:38;5.30;;;2.72;;
31043;SDS011;17710;52.520;13.352;2023-07-29T09:13:04;2.55;;;2.35;;
31043;SDS011;17710;52.520;13.352;2023-07-29T09:15:32;2.33;;;2.20;;
31043;SDS011;17710;52.520;13.352;2023-07-29T09:18:00;3.95;;;2.30;;
31043;SDS011;17710;52.520;13.352;2023-07-29T09:20:35;4.78;;;2.75;;
31043;SDS011;17710;52.520;13.352;2023-07-29T09:23:06;2.30;;;2.20;;
31043;SDS011;17710;52.520;13.352;2023-07-29T09:25:34;2.65;;;2.45;;
31043;SDS011;17710;52.520;13.352;2023-07-29T09:28:00;2.72;;;2.10;;
31043;SDS011;17710;52.520;13.352;2023-07-29T09:30:27;2.00;;;1.90;;
31043;SDS011;17710;52.520;13.352;2023-07-29T09:32:55;4.40;;;2.28;;
31043;SDS011;17710;52.520;13.352;2023-07-29T09:35:22;2.40;;;2.20;;
31043;SDS011;17710;52.520;13.352;2023-07-29T09:37:50;2.40;;;2.20;;
31043;SDS011;17710;52.520;13.352;2023-07-29T09:40:18;2.13;;;1.92;;
31043;SDS011;17710;52.520;13.352;2023-07-29T09:42:47;1.92;;;1.83;;
31043;SDS011;17710;52.520;13.352;2023-07-29T09:45:19;2.20;;;2.00;;
31043;SDS011;17710;52.520;13.352;2023-07-29T09:47:46;2.88;;;2.25;;
31043;SDS011;17710;52.520;13.352;2023-07-29T09:50:13;5.47;;;2.10;;
31043;SDS011;17710;52.520;13.352;2023-07-29T09:52:40;2.35;;;2.15;;
31043;SDS011;17710;52.520;13.352;2023-07-29T09:55:08;3.35;;;2.10;;
31043;SDS011;17710;52.520;13.352;2023-07-29T09:57:37;2.17;;;2.00;;
31043;SDS011;17710;52.520;13.352;2023-07-29T10:00:05;4.30;;;2.22;;
31043;SDS011;17710;52.520;13.352;2023-07-29T10:02:36;2.30;;;1.85;;
31043;SDS011;17710;52.520;13.352;2023-07-29T10:05:04;3.67;;;1.73;;
31043;SDS011;17710;52.520;13.352;2023-07-29T10:07:32;1.85;;;1.75;;
31043;SDS011;17710;52.520;13.352;2023-07-29T10:10:00;1.90;;;1.80;;
31043;SDS011;17710;52.520;13.352;2023-07-29T10:12:28;2.05;;;1.70;;
31043;SDS011;17710;52.520;13.352;2023-07-29T10:14:59;2.53;;;1.48;;
31043;SDS011;17710;52.520;13.352;2023-07-29T10:17:26;1.67;;;1.58;;
31043;SDS011;17710;52.520;13.352;2023-07-29T10:19:53;3.38;;;1.70;;
31043;SDS011;17710;52.520;13.352;2023-07-29T10:22:21;5.50;;;1.67;;
31043;SDS011;17710;52.520;13.352;2023-07-29T10:24:51;1.92;;;1.58;;
31043;SDS011;17710;52.520;13.352;2023-07-29T10:27:20;1.73;;;1.63;;
31043;SDS011;17710;52.520;13.352;2023-07-29T10:29:48;2.35;;;1.63;;
31043;SDS011;17710;52.520;13.352;2023-07-29T10:32:16;1.90;;;1.70;;
31043;SDS011;17710;52.520;13.352;2023-07-29T10:34:43;1.95;;;1.60;;
31043;SDS011;17710;52.520;13.352;2023-07-29T10:37:10;2.65;;;1.40;;
31043;SDS011;17710;52.520;13.352;2023-07-29T10:39:39;3.50;;;1.67;;
31043;SDS011;17710;52.520;13.352;2023-07-29T10:42:07;1.48;;;1.35;;
31043;SDS011;17710;52.520;13.352;2023-07-29T10:44:46;3.08;;;1.40;;
31043;SDS011;17710;52.520;13.352;2023-07-29T10:47:14;1.90;;;1.40;;
31043;SDS011;17710;52.520;13.352;2023-07-29T10:49:43;3.15;;;1.60;;
31043;SDS011;17710;52.520;13.352;2023-07-29T10:52:12;1.98;;;1.70;;
31043;SDS011;17710;52.520;13.352;2023-07-29T10:54:44;1.50;;;1.40;;
31043;SDS011;17710;52.520;13.352;2023-07-29T10:57:15;2.28;;;1.17;;
31043;SDS011;17710;52.520;13.352;2023-07-29T10:59:52;2.63;;;1.20;;
31043;SDS011;17710;52.520;13.352;2023-07-29T11:02:27;3.08;;;1.50;;
31043;SDS011;17710;52.520;13.352;2023-07-29T11:04:55;4.40;;;2.95;;
31043;SDS011;17710;52.520;13.352;2023-07-29T11:07:23;1.45;;;1.35;;
31043;SDS011;17710;52.520;13.352;2023-07-29T11:09:54;2.50;;;1.63;;
31043;SDS011;17710;52.520;13.352;2023-07-29T11:12:41;1.88;;;1.45;;
31043;SDS011;17710;52.520;13.352;2023-07-29T11:15:17;5.22;;;1.52;;
31043;SDS011;17710;52.520;13.352;2023-07-29T11:17:47;1.70;;;1.17;;
31043;SDS011;17710;52.520;13.352;2023-07-29T11:20:15;6.15;;;1.30;;
31043;SDS011;17710;52.520;13.352;2023-07-29T11:22:43;7.03;;;1.58;;
31043;SDS011;17710;52.520;13.352;2023-07-29T11:25:11;4.55;;;0.77;;
31043;SDS011;17710;52.520;13.352;2023-07-29T11:27:38;3.42;;;0.85;;
31043;SDS011;17710;52.520;13.352;2023-07-29T11:30:06;2.63;;;0.93;;
31043;SDS011;17710;52.520;13.352;2023-07-29T11:32:34;3.60;;;0.70;;
31043;SDS011;17710;52.520;13.352;2023-07-29T11:35:03;2.20;;;0.70;;
31043;SDS011;17710;52.520;13.352;2023-07-29T11:37:32;5.57;;;0.65;;
31043;SDS011;17710;52.520;13.352;2023-07-29T11:39:59;0.88;;;0.57;;
31043;SDS011;17710;52.520;13.352;2023-07-29T11:42:26;2.85;;;1.10;;
31043;SDS011;17710;52.520;13.352;2023-07-29T11:44:56;1.40;;;0.50;;
31043;SDS011;17710;52.520;13.352;2023-07-29T11:47:24;1.95;;;0.80;;
31043;SDS011;17710;52.520;13.352;2023-07-29T11:49:51;2.08;;;0.77;;
31043;SDS011;17710;52.520;13.352;2023-07-29T11:52:18;1.33;;;0.60;;
31043;SDS011;17710;52.520;13.352;2023-07-29T11:54:46;3.45;;;1.10;;
31043;SDS011;17710;52.520;13.352;2023-07-29T11:57:14;5.93;;;2.83;;
31043;SDS011;17710;52.520;13.352;2023-07-29T11:59:42;5.30;;;0.50;;
31043;SDS011;17710;52.520;13.352;2023-07-29T12:02:10;2.85;;;0.88;;
31043;SDS011;17710;52.520;13.352;2023-07-29T12:04:38;1.92;;;0.85;;
31043;SDS011;17710;52.520;13.352;2023-07-29T12:07:06;2.58;;;0.80;;
31043;SDS011;17710;52.520;13.352;2023-07-29T12:09:34;2.80;;;0.90;;
31043;SDS011;17710;52.520;13.352;2023-07-29T12:12:01;1.50;;;1.00;;
31043;SDS011;17710;52.520;13.352;2023-07-29T12:14:28;1.13;;;0.50;;
31043;SDS011;17710;52.520;13.352;2023-07-29T12:16:55;2.10;;;0.70;;
31043;SDS011;17710;52.520;13.352;2023-07-29T12:19:30;2.70;;;0.80;;
31043;SDS011;17710;52.520;13.352;2023-07-29T12:21:58;4.28;;;0.88;;
31043;SDS011;17710;52.520;13.352;2023-07-29T12:24:24;1.77;;;0.90;;
31043;SDS011;17710;52.520;13.352;2023-07-29T12:26:53;3.05;;;0.70;;
31043;SDS011;17710;52.520;13.352;2023-07-29T12:29:19;1.92;;;0.80;;
31043;SDS011;17710;52.520;13.352;2023-07-29T12:31:46;1.33;;;0.85;;
31043;SDS011;17710;52.520;13.352;2023-07-29T12:34:17;0.93;;;0.82;;
31043;SDS011;17710;52.520;13.352;2023-07-29T12:36:44;2.47;;;0.90;;
31043;SDS011;17710;52.520;13.352;2023-07-29T12:39:15;2.70;;;0.98;;
31043;SDS011;17710;52.520;13.352;2023-07-29T12:41:43;1.58;;;1.15;;
31043;SDS011;17710;52.520;13.352;2023-07-29T12:44:13;1.25;;;0.93;;
31043;SDS011;17710;52.520;13.352;2023-07-29T12:46:39;2.05;;;1.30;;
31043;SDS011;17710;52.520;13.352;2023-07-29T12:49:07;1.50;;;1.20;;
31043;SDS011;17710;52.520;13.352;2023-07-29T12:51:33;3.58;;;1.70;;
31043;SDS011;17710;52.520;13.352;2023-07-29T12:54:01;3.38;;;1.75;;
31043;SDS011;17710;52.520;13.352;2023-07-29T12:56:29;3.20;;;1.52;;
31043;SDS011;17710;52.520;13.352;2023-07-29T12:58:55;1.70;;;1.60;;
31043;SDS011;17710;52.520;13.352;2023-07-29T13:01:24;3.08;;;1.77;;
31043;SDS011;17710;52.520;13.352;2023-07-29T13:03:50;2.70;;;1.60;;
31043;SDS011;17710;52.520;13.352;2023-07-29T13:06:17;2.17;;;1.52;;
31043;SDS011;17710;52.520;13.352;2023-07-29T13:08:44;2.03;;;1.70;;
31043;SDS011;17710;52.520;13.352;2023-07-29T13:11:11;4.43;;;1.90;;
31043;SDS011;17710;52.520;13.352;2023-07-29T13:13:38;2.92;;;1.60;;
31043;SDS011;17710;52.520;13.352;2023-07-29T13:16:04;2.25;;;1.50;;
31043;SDS011;17710;52.520;13.352;2023-07-29T13:18:32;2.15;;;1.75;;
31043;SDS011;17710;52.520;13.352;2023-07-29T13:21:00;2.28;;;1.75;;
31043;SDS011;17710;52.520;13.352;2023-07-29T13:23:28;2.80;;;1.50;;
31043;SDS011;17710;52.520;13.352;2023-07-29T13:25:54;4.75;;;2.28;;
31043;SDS011;17710;52.520;13.352;2023-07-29T13:28:21;3.17;;;1.70;;
31043;SDS011;17710;52.520;13.352;2023-07-29T13:30:47;2.25;;;1.83;;
31043;SDS011;17710;52.520;13.352;2023-07-29T13:33:14;3.17;;;1.83;;
31043;SDS011;17710;52.520;13.352;2023-07-29T13:35:41;1.83;;;1.63;;
31043;SDS011;17710;52.520;13.352;2023-07-29T13:38:08;7.68;;;1.90;;
31043;SDS011;17710;52.520;13.352;2023-07-29T13:40:36;2.10;;;1.40;;
31043;SDS011;17710;52.520;13.352;2023-07-29T13:43:02;1.83;;;1.40;;
31043;SDS011;17710;52.520;13.352;2023-07-29T13:45:29;1.60;;;1.48;;
31043;SDS011;17710;52.520;13.352;2023-07-29T13:47:56;1.30;;;1.00;;
31043;SDS011;17710;52.520;13.352;2023-07-29T13:50:23;2.75;;;1.17;;
31043;SDS011;17710;52.520;13.352;2023-07-29T13:52:51;1.10;;;1.00;;
31043;SDS011;17710;52.520;13.352;2023-07-29T13:55:17;1.35;;;0.95;;
31043;SDS011;17710;52.520;13.352;2023-07-29T13:57:44;3.60;;;1.00;;
31043;SDS011;17710;52.520;13.352;2023-07-29T14:00:11;5.07;;;0.77;;
31043;SDS011;17710;52.520;13.352;2023-07-29T14:02:37;3.08;;;0.80;;
31043;SDS011;17710;52.520;13.352;2023-07-29T14:05:04;1.27;;;0.95;;
31043;SDS011;17710;52.520;13.352;2023-07-29T14:07:32;1.98;;;0.80;;
31043;SDS011;17710;52.520;13.352;2023-07-29T14:09:59;0.77;;;0.77;;
31043;SDS011;17710;52.520;13.352;2023-07-29T14:12:26;0.70;;;0.60;;
31043;SDS011;17710;52.520;13.352;2023-07-29T14:14:52;1.88;;;0.70;;
31043;SDS011;17710;52.520;13.352;2023-07-29T14:17:19;1.48;;;0.80;;
31043;SDS011;17710;52.520;13.352;2023-07-29T14:19:46;4.20;;;0.90;;
31043;SDS011;17710;52.520;13.352;2023-07-29T14:22:12;1.25;;;0.88;;
31043;SDS011;17710;52.520;13.352;2023-07-29T14:24:42;1.52;;;1.00;;
31043;SDS011;17710;52.520;13.352;2023-07-29T14:27:09;1.75;;;1.05;;
31043;SDS011;17710;52.520;13.352;2023-07-29T14:29:36;3.03;;;0.90;;
31043;SDS011;17710;52.520;13.352;2023-07-29T14:32:03;0.85;;;0.85;;
31043;SDS011;17710;52.520;13.352;2023-07-29T14:34:30;3.55;;;1.00;;